首页
METAR-TAF:

METAR-TAF

机场 :

海口美兰国际机场

海口, 中华人民共和国

纬度: 19-56-05N, 经度: 110-27-32E, 海拔: 23米

当前天气观测

该预报发布于1小时和22分钟前的04:00 UTC
风速6节,风向,在东转东南西南之间变化
温度 35°C
湿度 67%
气压 1003 hPa
能见度10公里或以上
散云层高于3300英尺

METAR: ZJHK 200400Z 18003MPS 120V230 9999 SCT033 35/28 Q1003 NOSIG

时间: 13:22 (05:22 UTC)

预报

该预报发布于8小时和14分钟前的21:08 UTC
预报有效从20日的 00点(UTC)到 20日的 24点(UTC)
风速6节,风向南转南东
能见度10公里或以上
散云层高于2000英尺

TAF: ZJHK 192108Z 2000/2024 16003MPS 9999 SCT020 TX36/2006Z TN27/2021Z

超过4000个机场的气象观测和天气预报(METAR&TAF报告)。

可查询的气象台以黄色和红色小点在地图上表示。

将鼠标移到小点上方,可查看气象台名称。

然后点击查看天气观测和预报。

如需切换地图:点击带黑十字的绿色按钮放大地图;点击带横线的绿色按钮缩小地图;或者点击绿色箭头查看邻近地区的地图。


METAR-TAF: